sensor_id;sensor_type;location;lat;lon;timestamp;temperature;humidity
51500;DHT22;39101;53.478;6.158;2023-03-23T00:02:25;10.00;99.90
51500;DHT22;39101;53.478;6.158;2023-03-23T00:04:51;10.00;99.90
51500;DHT22;39101;53.478;6.158;2023-03-23T00:07:17;9.90;99.90
51500;DHT22;39101;53.478;6.158;2023-03-23T00:09:50;10.00;99.90
51500;DHT22;39101;53.478;6.158;2023-03-23T00:12:23;9.90;99.90
51500;DHT22;39101;53.478;6.158;2023-03-23T00:15:06;10.00;99.90
51500;DHT22;39101;53.478;6.158;2023-03-23T00:17:32;10.00;99.90
51500;DHT22;39101;53.478;6.158;2023-03-23T00:19:59;10.10;99.90
51500;DHT22;39101;53.478;6.158;2023-03-23T00:22:27;10.00;99.90
51500;DHT22;39101;53.478;6.158;2023-03-23T00:24:53;10.30;99.90
51500;DHT22;39101;53.478;6.158;2023-03-23T00:27:20;10.20;99.90
51500;DHT22;39101;53.478;6.158;2023-03-23T00:29:51;10.30;99.90
51500;DHT22;39101;53.478;6.158;2023-03-23T00:32:21;10.00;99.90
51500;DHT22;39101;53.478;6.158;2023-03-23T00:34:54;10.20;99.90
51500;DHT22;39101;53.478;6.158;2023-03-23T00:37:20;10.00;99.90
51500;DHT22;39101;53.478;6.158;2023-03-23T00:39:46;10.20;99.90
51500;DHT22;39101;53.478;6.158;2023-03-23T00:42:14;10.20;99.90
51500;DHT22;39101;53.478;6.158;2023-03-23T00:44:40;9.90;99.90
51500;DHT22;39101;53.478;6.158;2023-03-23T00:47:06;10.10;99.90
51500;DHT22;39101;53.478;6.158;2023-03-23T00:49:34;9.90;99.90
51500;DHT22;39101;53.478;6.158;2023-03-23T00:52:00;10.10;99.90
51500;DHT22;39101;53.478;6.158;2023-03-23T00:54:27;10.10;99.90
51500;DHT22;39101;53.478;6.158;2023-03-23T00:56:53;9.90;99.90
51500;DHT22;39101;53.478;6.158;2023-03-23T00:59:20;10.20;99.90
51500;DHT22;39101;53.478;6.158;2023-03-23T01:01:46;9.90;99.90
51500;DHT22;39101;53.478;6.158;2023-03-23T01:04:12;10.10;99.90
51500;DHT22;39101;53.478;6.158;2023-03-23T01:06:39;10.10;99.90
51500;DHT22;39101;53.478;6.158;2023-03-23T01:09:07;10.10;99.90
51500;DHT22;39101;53.478;6.158;2023-03-23T01:11:33;10.00;99.90
51500;DHT22;39101;53.478;6.158;2023-03-23T01:13:59;10.00;99.90
51500;DHT22;39101;53.478;6.158;2023-03-23T01:16:25;10.00;99.90
51500;DHT22;39101;53.478;6.158;2023-03-23T01:18:51;10.10;99.90
51500;DHT22;39101;53.478;6.158;2023-03-23T01:21:18;10.00;99.90
51500;DHT22;39101;53.478;6.158;2023-03-23T01:23:45;10.30;99.90
51500;DHT22;39101;53.478;6.158;2023-03-23T01:26:11;10.00;99.90
51500;DHT22;39101;53.478;6.158;2023-03-23T01:28:40;10.20;99.90
51500;DHT22;39101;53.478;6.158;2023-03-23T01:31:08;10.20;99.90
51500;DHT22;39101;53.478;6.158;2023-03-23T01:33:34;10.10;99.90
51500;DHT22;39101;53.478;6.158;2023-03-23T01:36:05;10.20;99.90
51500;DHT22;39101;53.478;6.158;2023-03-23T01:38:33;10.30;99.90
51500;DHT22;39101;53.478;6.158;2023-03-23T01:40:59;10.20;99.90
51500;DHT22;39101;53.478;6.158;2023-03-23T01:43:24;10.10;99.90
51500;DHT22;39101;53.478;6.158;2023-03-23T01:45:50;10.40;99.90
51500;DHT22;39101;53.478;6.158;2023-03-23T01:48:35;10.10;99.90
51500;DHT22;39101;53.478;6.158;2023-03-23T01:51:06;10.30;99.90
51500;DHT22;39101;53.478;6.158;2023-03-23T01:53:48;10.10;99.90
51500;DHT22;39101;53.478;6.158;2023-03-23T01:56:41;10.40;99.90
51500;DHT22;39101;53.478;6.158;2023-03-23T01:59:11;10.10;99.90
51500;DHT22;39101;53.478;6.158;2023-03-23T02:01:38;10.30;99.90
51500;DHT22;39101;53.478;6.158;2023-03-23T02:04:08;10.30;99.90
51500;DHT22;39101;53.478;6.158;2023-03-23T02:06:34;10.20;99.90
51500;DHT22;39101;53.478;6.158;2023-03-23T02:09:01;10.40;99.90
51500;DHT22;39101;53.478;6.158;2023-03-23T02:11:27;10.40;99.90
51500;DHT22;39101;53.478;6.158;2023-03-23T02:13:52;10.30;99.90
51500;DHT22;39101;53.478;6.158;2023-03-23T02:19:08;10.30;99.90
51500;DHT22;39101;53.478;6.158;2023-03-23T02:35:17;10.60;99.90
51500;DHT22;39101;53.478;6.158;2023-03-23T02:38:04;10.50;99.90
51500;DHT22;39101;53.478;6.158;2023-03-23T02:40:43;10.30;99.90
51500;DHT22;39101;53.478;6.158;2023-03-23T02:43:20;10.50;99.90
51500;DHT22;39101;53.478;6.158;2023-03-23T02:45:47;10.40;99.90
51500;DHT22;39101;53.478;6.158;2023-03-23T02:48:16;10.40;99.90
51500;DHT22;39101;53.478;6.158;2023-03-23T02:50:47;10.30;99.90
51500;DHT22;39101;53.478;6.158;2023-03-23T02:53:17;10.60;99.90
51500;DHT22;39101;53.478;6.158;2023-03-23T02:55:44;10.30;99.90
51500;DHT22;39101;53.478;6.158;2023-03-23T02:58:12;10.40;99.90
51500;DHT22;39101;53.478;6.158;2023-03-23T03:00:38;10.30;99.90
51500;DHT22;39101;53.478;6.158;2023-03-23T03:03:05;10.40;99.90
51500;DHT22;39101;53.478;6.158;2023-03-23T03:08:13;10.30;99.90
51500;DHT22;39101;53.478;6.158;2023-03-23T03:10:50;10.30;99.90
51500;DHT22;39101;53.478;6.158;2023-03-23T03:13:45;10.50;99.90
51500;DHT22;39101;53.478;6.158;2023-03-23T03:21:30;10.30;99.90
51500;DHT22;39101;53.478;6.158;2023-03-23T03:23:58;10.30;99.90
51500;DHT22;39101;53.478;6.158;2023-03-23T03:26:27;10.50;99.90
51500;DHT22;39101;53.478;6.158;2023-03-23T03:28:54;10.60;99.90
51500;DHT22;39101;53.478;6.158;2023-03-23T03:31:24;10.40;99.90
51500;DHT22;39101;53.478;6.158;2023-03-23T03:33:51;10.60;99.90
51500;DHT22;39101;53.478;6.158;2023-03-23T03:36:21;10.60;99.90
51500;DHT22;39101;53.478;6.158;2023-03-23T03:38:49;10.40;99.90
51500;DHT22;39101;53.478;6.158;2023-03-23T03:41:16;10.50;99.90
51500;DHT22;39101;53.478;6.158;2023-03-23T03:43:43;10.70;99.90
51500;DHT22;39101;53.478;6.158;2023-03-23T03:46:08;10.40;99.90
51500;DHT22;39101;53.478;6.158;2023-03-23T03:48:34;10.70;99.90
51500;DHT22;39101;53.478;6.158;2023-03-23T03:51:00;10.50;99.90
51500;DHT22;39101;53.478;6.158;2023-03-23T03:53:27;10.60;99.90
51500;DHT22;39101;53.478;6.158;2023-03-23T03:55:53;10.60;99.90
51500;DHT22;39101;53.478;6.158;2023-03-23T03:58:26;10.60;99.90
51500;DHT22;39101;53.478;6.158;2023-03-23T04:00:58;10.70;99.90
51500;DHT22;39101;53.478;6.158;2023-03-23T04:03:24;10.40;99.90
51500;DHT22;39101;53.478;6.158;2023-03-23T04:05:51;10.60;99.90
51500;DHT22;39101;53.478;6.158;2023-03-23T04:08:16;10.30;99.90
51500;DHT22;39101;53.478;6.158;2023-03-23T04:10:43;10.20;99.90
51500;DHT22;39101;53.478;6.158;2023-03-23T04:13:08;10.20;99.90
51500;DHT22;39101;53.478;6.158;2023-03-23T04:15:34;10.20;99.90
51500;DHT22;39101;53.478;6.158;2023-03-23T04:18:00;10.40;99.90
51500;DHT22;39101;53.478;6.158;2023-03-23T04:20:26;10.20;99.90
51500;DHT22;39101;53.478;6.158;2023-03-23T04:22:52;10.30;99.90
51500;DHT22;39101;53.478;6.158;2023-03-23T04:25:20;10.20;99.90
51500;DHT22;39101;53.478;6.158;2023-03-23T04:27:50;10.30;99.90
51500;DHT22;39101;53.478;6.158;2023-03-23T04:30:21;10.20;99.90
51500;DHT22;39101;53.478;6.158;2023-03-23T04:32:48;10.20;99.90
51500;DHT22;39101;53.478;6.158;2023-03-23T04:35:17;10.30;99.90
51500;DHT22;39101;53.478;6.158;2023-03-23T04:37:43;10.30;99.90
51500;DHT22;39101;53.478;6.158;2023-03-23T04:40:10;10.40;99.90
51500;DHT22;39101;53.478;6.158;2023-03-23T04:42:43;10.60;99.90
51500;DHT22;39101;53.478;6.158;2023-03-23T04:45:18;10.60;99.90
51500;DHT22;39101;53.478;6.158;2023-03-23T04:47:48;10.60;99.90
51500;DHT22;39101;53.478;6.158;2023-03-23T04:50:20;10.60;99.90
51500;DHT22;39101;53.478;6.158;2023-03-23T04:52:47;10.40;99.90
51500;DHT22;39101;53.478;6.158;2023-03-23T04:55:13;10.60;99.90
51500;DHT22;39101;53.478;6.158;2023-03-23T04:57:39;10.40;99.90
51500;DHT22;39101;53.478;6.158;2023-03-23T05:00:06;10.60;99.90
51500;DHT22;39101;53.478;6.158;2023-03-23T05:02:38;10.50;99.90
51500;DHT22;39101;53.478;6.158;2023-03-23T05:05:11;10.70;99.90
51500;DHT22;39101;53.478;6.158;2023-03-23T05:07:37;10.60;99.90
51500;DHT22;39101;53.478;6.158;2023-03-23T05:10:04;10.60;99.90
51500;DHT22;39101;53.478;6.158;2023-03-23T05:12:30;10.40;99.90
51500;DHT22;39101;53.478;6.158;2023-03-23T05:14:56;10.40;99.90
51500;DHT22;39101;53.478;6.158;2023-03-23T05:17:22;10.30;99.90
51500;DHT22;39101;53.478;6.158;2023-03-23T05:19:50;10.40;99.90
51500;DHT22;39101;53.478;6.158;2023-03-23T05:22:16;10.50;99.90
51500;DHT22;39101;53.478;6.158;2023-03-23T05:24:43;10.30;99.90
51500;DHT22;39101;53.478;6.158;2023-03-23T05:27:09;10.20;99.90
51500;DHT22;39101;53.478;6.158;2023-03-23T05:29:35;10.20;99.90
51500;DHT22;39101;53.478;6.158;2023-03-23T05:32:05;10.10;99.90
51500;DHT22;39101;53.478;6.158;2023-03-23T05:34:36;10.10;99.90
51500;DHT22;39101;53.478;6.158;2023-03-23T05:37:03;10.20;99.90
51500;DHT22;39101;53.478;6.158;2023-03-23T05:39:29;10.10;99.90
51500;DHT22;39101;53.478;6.158;2023-03-23T05:41:56;10.20;99.90
51500;DHT22;39101;53.478;6.158;2023-03-23T05:44:22;10.10;99.90
51500;DHT22;39101;53.478;6.158;2023-03-23T05:46:48;10.00;99.90
51500;DHT22;39101;53.478;6.158;2023-03-23T05:49:15;9.90;99.90
51500;DHT22;39101;53.478;6.158;2023-03-23T05:51:44;9.90;99.90
51500;DHT22;39101;53.478;6.158;2023-03-23T05:54:13;10.10;99.90
51500;DHT22;39101;53.478;6.158;2023-03-23T05:56:40;10.00;99.90
51500;DHT22;39101;53.478;6.158;2023-03-23T05:59:06;9.90;99.90
51500;DHT22;39101;53.478;6.158;2023-03-23T06:01:32;9.80;99.90
51500;DHT22;39101;53.478;6.158;2023-03-23T06:04:01;10.00;99.90
51500;DHT22;39101;53.478;6.158;2023-03-23T06:06:28;9.90;99.90
51500;DHT22;39101;53.478;6.158;2023-03-23T06:08:56;9.90;99.90
51500;DHT22;39101;53.478;6.158;2023-03-23T06:11:22;9.90;99.90
51500;DHT22;39101;53.478;6.158;2023-03-23T06:13:48;9.80;99.90
51500;DHT22;39101;53.478;6.158;2023-03-23T06:16:14;9.80;99.90
51500;DHT22;39101;53.478;6.158;2023-03-23T06:18:41;9.90;99.90
51500;DHT22;39101;53.478;6.158;2023-03-23T06:21:09;9.80;99.90
51500;DHT22;39101;53.478;6.158;2023-03-23T06:23:35;9.90;99.90
51500;DHT22;39101;53.478;6.158;2023-03-23T06:26:03;9.90;99.90
51500;DHT22;39101;53.478;6.158;2023-03-23T06:28:30;9.70;99.90
51500;DHT22;39101;53.478;6.158;2023-03-23T06:31:01;9.90;99.90
51500;DHT22;39101;53.478;6.158;2023-03-23T06:33:27;9.90;99.90
51500;DHT22;39101;53.478;6.158;2023-03-23T06:35:53;10.00;99.90
51500;DHT22;39101;53.478;6.158;2023-03-23T06:38:19;9.90;99.90
51500;DHT22;39101;53.478;6.158;2023-03-23T06:40:45;9.70;99.90
51500;DHT22;39101;53.478;6.158;2023-03-23T06:43:12;9.80;99.90
51500;DHT22;39101;53.478;6.158;2023-03-23T06:45:39;9.80;99.90
51500;DHT22;39101;53.478;6.158;2023-03-23T06:48:06;9.90;99.90
51500;DHT22;39101;53.478;6.158;2023-03-23T06:50:32;9.80;99.90
51500;DHT22;39101;53.478;6.158;2023-03-23T06:52:58;9.70;99.90
51500;DHT22;39101;53.478;6.158;2023-03-23T06:55:23;9.80;99.90
51500;DHT22;39101;53.478;6.158;2023-03-23T06:57:49;9.90;99.90
51500;DHT22;39101;53.478;6.158;2023-03-23T07:00:15;9.80;99.90
51500;DHT22;39101;53.478;6.158;2023-03-23T07:02:41;10.00;99.90
51500;DHT22;39101;53.478;6.158;2023-03-23T07:05:10;10.00;99.90
51500;DHT22;39101;53.478;6.158;2023-03-23T07:07:37;9.90;99.90
51500;DHT22;39101;53.478;6.158;2023-03-23T07:10:05;10.00;99.90
51500;DHT22;39101;53.478;6.158;2023-03-23T07:12:31;10.00;99.90
51500;DHT22;39101;53.478;6.158;2023-03-23T07:14:57;10.00;99.90
51500;DHT22;39101;53.478;6.158;2023-03-23T07:17:22;10.00;99.90
51500;DHT22;39101;53.478;6.158;2023-03-23T07:19:48;10.00;99.90
51500;DHT22;39101;53.478;6.158;2023-03-23T07:22:14;10.20;99.90
51500;DHT22;39101;53.478;6.158;2023-03-23T07:24:40;10.40;99.90
51500;DHT22;39101;53.478;6.158;2023-03-23T07:27:05;10.30;99.90
51500;DHT22;39101;53.478;6.158;2023-03-23T07:29:31;10.10;99.90
51500;DHT22;39101;53.478;6.158;2023-03-23T07:32:00;10.20;99.90
51500;DHT22;39101;53.478;6.158;2023-03-23T07:34:27;10.30;99.90
51500;DHT22;39101;53.478;6.158;2023-03-23T07:36:53;10.20;99.90
51500;DHT22;39101;53.478;6.158;2023-03-23T07:39:19;10.40;99.90
51500;DHT22;39101;53.478;6.158;2023-03-23T07:41:45;10.50;99.90
51500;DHT22;39101;53.478;6.158;2023-03-23T07:44:10;10.50;99.90
51500;DHT22;39101;53.478;6.158;2023-03-23T07:46:36;10.40;99.90
51500;DHT22;39101;53.478;6.158;2023-03-23T07:49:02;10.60;99.90
51500;DHT22;39101;53.478;6.158;2023-03-23T07:51:31;10.50;99.90
51500;DHT22;39101;53.478;6.158;2023-03-23T07:53:57;10.60;99.90
51500;DHT22;39101;53.478;6.158;2023-03-23T07:56:22;10.70;99.90
51500;DHT22;39101;53.478;6.158;2023-03-23T07:58:48;10.60;99.90
51500;DHT22;39101;53.478;6.158;2023-03-23T08:01:15;10.60;99.90
51500;DHT22;39101;53.478;6.158;2023-03-23T08:03:41;10.70;99.90
51500;DHT22;39101;53.478;6.158;2023-03-23T08:06:07;10.80;99.90
51500;DHT22;39101;53.478;6.158;2023-03-23T08:08:34;10.80;99.90
51500;DHT22;39101;53.478;6.158;2023-03-23T08:11:00;10.70;99.90
51500;DHT22;39101;53.478;6.158;2023-03-23T08:13:25;10.80;99.90
51500;DHT22;39101;53.478;6.158;2023-03-23T08:15:51;10.80;99.90
51500;DHT22;39101;53.478;6.158;2023-03-23T08:18:17;11.00;99.90
51500;DHT22;39101;53.478;6.158;2023-03-23T08:20:44;10.90;99.90
51500;DHT22;39101;53.478;6.158;2023-03-23T08:23:14;10.80;99.90
51500;DHT22;39101;53.478;6.158;2023-03-23T08:25:42;10.80;99.90
51500;DHT22;39101;53.478;6.158;2023-03-23T08:28:08;10.90;99.90
51500;DHT22;39101;53.478;6.158;2023-03-23T08:30:35;11.00;99.90
51500;DHT22;39101;53.478;6.158;2023-03-23T08:33:04;11.00;99.90
51500;DHT22;39101;53.478;6.158;2023-03-23T08:35:30;11.20;99.90
51500;DHT22;39101;53.478;6.158;2023-03-23T08:37:56;11.00;99.90
51500;DHT22;39101;53.478;6.158;2023-03-23T08:40:23;11.00;99.90
51500;DHT22;39101;53.478;6.158;2023-03-23T08:42:50;11.00;99.90
51500;DHT22;39101;53.478;6.158;2023-03-23T08:45:23;10.80;99.90
51500;DHT22;39101;53.478;6.158;2023-03-23T08:47:50;10.70;99.90
51500;DHT22;39101;53.478;6.158;2023-03-23T08:50:23;10.80;99.90
51500;DHT22;39101;53.478;6.158;2023-03-23T08:52:49;11.00;99.90
51500;DHT22;39101;53.478;6.158;2023-03-23T08:55:15;11.10;99.90
51500;DHT22;39101;53.478;6.158;2023-03-23T08:57:41;11.00;99.90
51500;DHT22;39101;53.478;6.158;2023-03-23T09:00:12;11.10;99.90
51500;DHT22;39101;53.478;6.158;2023-03-23T09:02:43;11.10;99.90
51500;DHT22;39101;53.478;6.158;2023-03-23T09:05:10;11.30;99.90
51500;DHT22;39101;53.478;6.158;2023-03-23T09:07:41;11.20;99.90
51500;DHT22;39101;53.478;6.158;2023-03-23T09:10:08;11.40;99.90
51500;DHT22;39101;53.478;6.158;2023-03-23T09:12:34;11.50;99.90
51500;DHT22;39101;53.478;6.158;2023-03-23T09:15:01;11.40;99.90
51500;DHT22;39101;53.478;6.158;2023-03-23T09:17:30;11.30;99.90
51500;DHT22;39101;53.478;6.158;2023-03-23T09:19:56;11.40;99.90
51500;DHT22;39101;53.478;6.158;2023-03-23T09:22:22;11.40;99.90
51500;DHT22;39101;53.478;6.158;2023-03-23T09:24:49;11.30;99.90
51500;DHT22;39101;53.478;6.158;2023-03-23T09:27:17;11.40;99.90
51500;DHT22;39101;53.478;6.158;2023-03-23T09:29:43;11.50;99.90
51500;DHT22;39101;53.478;6.158;2023-03-23T09:32:10;11.30;99.90
51500;DHT22;39101;53.478;6.158;2023-03-23T09:34:39;11.40;99.90
51500;DHT22;39101;53.478;6.158;2023-03-23T09:37:05;11.60;99.90
51500;DHT22;39101;53.478;6.158;2023-03-23T09:39:30;11.60;99.90
51500;DHT22;39101;53.478;6.158;2023-03-23T09:42:18;11.50;99.90
51500;DHT22;39101;53.478;6.158;2023-03-23T09:50:20;11.60;99.90
51500;DHT22;39101;53.478;6.158;2023-03-23T09:53:03;11.50;99.90
51500;DHT22;39101;53.478;6.158;2023-03-23T09:55:30;11.60;99.90
51500;DHT22;39101;53.478;6.158;2023-03-23T10:00:27;11.70;99.90
51500;DHT22;39101;53.478;6.158;2023-03-23T10:03:14;11.60;99.90
51500;DHT22;39101;53.478;6.158;2023-03-23T10:05:53;11.60;99.90
51500;DHT22;39101;53.478;6.158;2023-03-23T10:08:30;11.50;99.90
51500;DHT22;39101;53.478;6.158;2023-03-23T10:11:33;11.50;99.90
51500;DHT22;39101;53.478;6.158;2023-03-23T10:14:19;11.50;99.90
51500;DHT22;39101;53.478;6.158;2023-03-23T10:17:31;11.70;99.90
51500;DHT22;39101;53.478;6.158;2023-03-23T10:25:22;11.80;99.90
51500;DHT22;39101;53.478;6.158;2023-03-23T10:32:53;11.70;99.90
51500;DHT22;39101;53.478;6.158;2023-03-23T10:35:33;11.90;99.90
51500;DHT22;39101;53.478;6.158;2023-03-23T10:38:02;11.70;99.90
51500;DHT22;39101;53.478;6.158;2023-03-23T10:40:29;11.70;99.90
51500;DHT22;39101;53.478;6.158;2023-03-23T10:42:57;11.70;99.90
51500;DHT22;39101;53.478;6.158;2023-03-23T10:45:28;11.90;99.90
51500;DHT22;39101;53.478;6.158;2023-03-23T10:50:39;11.90;99.90
51500;DHT22;39101;53.478;6.158;2023-03-23T10:53:18;12.10;99.90
51500;DHT22;39101;53.478;6.158;2023-03-23T10:55:45;12.00;99.90
51500;DHT22;39101;53.478;6.158;2023-03-23T10:58:31;12.00;99.90
51500;DHT22;39101;53.478;6.158;2023-03-23T11:01:02;12.00;99.90
51500;DHT22;39101;53.478;6.158;2023-03-23T11:03:37;12.10;99.90
51500;DHT22;39101;53.478;6.158;2023-03-23T11:06:32;12.40;99.90
51500;DHT22;39101;53.478;6.158;2023-03-23T11:09:11;12.40;99.90
51500;DHT22;39101;53.478;6.158;2023-03-23T11:11:39;12.40;99.90
51500;DHT22;39101;53.478;6.158;2023-03-23T11:14:28;12.40;99.90
51500;DHT22;39101;53.478;6.158;2023-03-23T11:16:59;12.50;99.90
51500;DHT22;39101;53.478;6.158;2023-03-23T11:19:37;12.40;99.90
51500;DHT22;39101;53.478;6.158;2023-03-23T11:22:13;12.30;99.90
51500;DHT22;39101;53.478;6.158;2023-03-23T11:24:43;12.20;99.90
51500;DHT22;39101;53.478;6.158;2023-03-23T11:27:10;12.40;99.90
51500;DHT22;39101;53.478;6.158;2023-03-23T11:29:54;12.40;99.90
51500;DHT22;39101;53.478;6.158;2023-03-23T11:32:24;12.60;99.90
51500;DHT22;39101;53.478;6.158;2023-03-23T11:34:56;12.70;99.90
51500;DHT22;39101;53.478;6.158;2023-03-23T11:37:43;12.70;99.90
51500;DHT22;39101;53.478;6.158;2023-03-23T11:42:47;12.60;99.90
51500;DHT22;39101;53.478;6.158;2023-03-23T11:45:22;12.40;99.90
51500;DHT22;39101;53.478;6.158;2023-03-23T11:51:15;12.50;99.90
51500;DHT22;39101;53.478;6.158;2023-03-23T11:56:30;12.70;99.90
51500;DHT22;39101;53.478;6.158;2023-03-23T11:58:57;12.70;99.90
51500;DHT22;39101;53.478;6.158;2023-03-23T12:01:34;12.80;99.90
51500;DHT22;39101;53.478;6.158;2023-03-23T12:10:04;12.60;99.90
51500;DHT22;39101;53.478;6.158;2023-03-23T12:15:42;12.60;99.90
51500;DHT22;39101;53.478;6.158;2023-03-23T12:18:40;12.60;99.90
51500;DHT22;39101;53.478;6.158;2023-03-23T12:26:32;12.70;99.90
51500;DHT22;39101;53.478;6.158;2023-03-23T12:29:19;12.80;99.90
51500;DHT22;39101;53.478;6.158;2023-03-23T12:32:16;12.80;99.90
51500;DHT22;39101;53.478;6.158;2023-03-23T12:37:33;13.00;99.90
51500;DHT22;39101;53.478;6.158;2023-03-23T12:40:30;12.90;99.90
51500;DHT22;39101;53.478;6.158;2023-03-23T12:43:24;12.90;99.90
51500;DHT22;39101;53.478;6.158;2023-03-23T12:48:43;13.40;99.90
51500;DHT22;39101;53.478;6.158;2023-03-23T12:51:15;13.40;99.90
51500;DHT22;39101;53.478;6.158;2023-03-23T12:53:44;13.40;99.90
51500;DHT22;39101;53.478;6.158;2023-03-23T12:56:38;13.30;99.90
51500;DHT22;39101;53.478;6.158;2023-03-23T12:59:27;13.30;99.90
51500;DHT22;39101;53.478;6.158;2023-03-23T13:02:25;13.30;99.90
51500;DHT22;39101;53.478;6.158;2023-03-23T13:05:03;13.50;99.90
51500;DHT22;39101;53.478;6.158;2023-03-23T13:07:35;13.50;99.90
51500;DHT22;39101;53.478;6.158;2023-03-23T13:10:22;13.60;99.90
51500;DHT22;39101;53.478;6.158;2023-03-23T13:12:49;13.50;99.90
51500;DHT22;39101;53.478;6.158;2023-03-23T13:17:54;13.60;99.90
51500;DHT22;39101;53.478;6.158;2023-03-23T13:23:18;13.40;99.90
51500;DHT22;39101;53.478;6.158;2023-03-23T13:25:55;13.50;99.90
51500;DHT22;39101;53.478;6.158;2023-03-23T13:28:27;13.50;99.90
51500;DHT22;39101;53.478;6.158;2023-03-23T13:31:13;13.40;99.90
51500;DHT22;39101;53.478;6.158;2023-03-23T13:33:46;13.50;99.90
51500;DHT22;39101;53.478;6.158;2023-03-23T13:36:15;13.40;99.90
51500;DHT22;39101;53.478;6.158;2023-03-23T13:38:48;13.30;99.90
51500;DHT22;39101;53.478;6.158;2023-03-23T13:41:17;13.20;99.90
51500;DHT22;39101;53.478;6.158;2023-03-23T13:43:43;13.00;99.90
51500;DHT22;39101;53.478;6.158;2023-03-23T13:46:25;13.20;99.90
51500;DHT22;39101;53.478;6.158;2023-03-23T13:49:15;13.10;99.90
51500;DHT22;39101;53.478;6.158;2023-03-23T13:54:14;13.00;99.90
51500;DHT22;39101;53.478;6.158;2023-03-23T13:57:00;12.90;99.90
51500;DHT22;39101;53.478;6.158;2023-03-23T14:04:42;13.00;99.90
51500;DHT22;39101;53.478;6.158;2023-03-23T14:07:15;12.90;99.90
51500;DHT22;39101;53.478;6.158;2023-03-23T14:09:42;13.00;99.90
51500;DHT22;39101;53.478;6.158;2023-03-23T14:12:19;13.20;99.90
51500;DHT22;39101;53.478;6.158;2023-03-23T14:14:47;13.40;99.90
51500;DHT22;39101;53.478;6.158;2023-03-23T14:17:24;13.50;99.90
51500;DHT22;39101;53.478;6.158;2023-03-23T14:19:53;13.70;99.90
51500;DHT22;39101;53.478;6.158;2023-03-23T14:24:52;14.00;99.90
51500;DHT22;39101;53.478;6.158;2023-03-23T14:27:21;13.90;99.90
51500;DHT22;39101;53.478;6.158;2023-03-23T14:29:58;13.90;99.90
51500;DHT22;39101;53.478;6.158;2023-03-23T14:32:28;14.00;99.90
51500;DHT22;39101;53.478;6.158;2023-03-23T14:34:54;13.90;99.90
51500;DHT22;39101;53.478;6.158;2023-03-23T14:37:21;14.10;99.90
51500;DHT22;39101;53.478;6.158;2023-03-23T14:39:53;14.30;99.90
51500;DHT22;39101;53.478;6.158;2023-03-23T14:42:24;14.40;99.90
51500;DHT22;39101;53.478;6.158;2023-03-23T14:44:51;14.40;99.90
51500;DHT22;39101;53.478;6.158;2023-03-23T14:47:27;14.30;99.90
51500;DHT22;39101;53.478;6.158;2023-03-23T14:49:57;14.40;99.90
51500;DHT22;39101;53.478;6.158;2023-03-23T14:52:27;14.40;99.90
51500;DHT22;39101;53.478;6.158;2023-03-23T14:54:53;14.40;99.90
51500;DHT22;39101;53.478;6.158;2023-03-23T14:57:26;14.40;99.90
51500;DHT22;39101;53.478;6.158;2023-03-23T14:59:52;14.20;99.90
51500;DHT22;39101;53.478;6.158;2023-03-23T15:02:33;14.30;99.90
51500;DHT22;39101;53.478;6.158;2023-03-23T15:07:53;14.00;99.90
51500;DHT22;39101;53.478;6.158;2023-03-23T15:10:20;13.90;99.90
51500;DHT22;39101;53.478;6.158;2023-03-23T15:12:48;13.90;99.90
51500;DHT22;39101;53.478;6.158;2023-03-23T15:15:24;13.90;99.90
51500;DHT22;39101;53.478;6.158;2023-03-23T15:17:50;13.90;99.90
51500;DHT22;39101;53.478;6.158;2023-03-23T15:23:07;13.90;99.90
51500;DHT22;39101;53.478;6.158;2023-03-23T15:25:34;13.90;99.90
51500;DHT22;39101;53.478;6.158;2023-03-23T15:30:36;14.00;99.90
51500;DHT22;39101;53.478;6.158;2023-03-23T15:33:10;14.00;99.90
51500;DHT22;39101;53.478;6.158;2023-03-23T15:35:56;14.20;99.90
51500;DHT22;39101;53.478;6.158;2023-03-23T15:40:55;14.50;99.90
51500;DHT22;39101;53.478;6.158;2023-03-23T15:43:25;14.60;99.90
51500;DHT22;39101;53.478;6.158;2023-03-23T15:48:22;14.90;99.90
51500;DHT22;39101;53.478;6.158;2023-03-23T15:50:49;15.00;99.90
51500;DHT22;39101;53.478;6.158;2023-03-23T15:55:53;15.10;99.90
51500;DHT22;39101;53.478;6.158;2023-03-23T15:58:19;15.20;99.90
51500;DHT22;39101;53.478;6.158;2023-03-23T16:00:45;15.30;99.90
51500;DHT22;39101;53.478;6.158;2023-03-23T16:03:19;15.30;99.90
51500;DHT22;39101;53.478;6.158;2023-03-23T16:05:46;15.20;99.90
51500;DHT22;39101;53.478;6.158;2023-03-23T16:08:12;15.10;99.90
51500;DHT22;39101;53.478;6.158;2023-03-23T16:10:39;14.90;99.90
51500;DHT22;39101;53.478;6.158;2023-03-23T16:13:04;14.70;99.90
51500;DHT22;39101;53.478;6.158;2023-03-23T16:15:31;14.50;99.90
51500;DHT22;39101;53.478;6.158;2023-03-23T16:17:57;14.30;99.90
51500;DHT22;39101;53.478;6.158;2023-03-23T16:20:23;14.20;99.90
51500;DHT22;39101;53.478;6.158;2023-03-23T16:22:50;14.20;99.90
51500;DHT22;39101;53.478;6.158;2023-03-23T16:25:16;14.20;99.90
51500;DHT22;39101;53.478;6.158;2023-03-23T16:27:43;14.20;99.90
51500;DHT22;39101;53.478;6.158;2023-03-23T16:30:17;14.10;99.90
51500;DHT22;39101;53.478;6.158;2023-03-23T16:32:43;14.10;99.90
51500;DHT22;39101;53.478;6.158;2023-03-23T16:35:08;14.00;99.90
51500;DHT22;39101;53.478;6.158;2023-03-23T16:37:35;13.80;99.90
51500;DHT22;39101;53.478;6.158;2023-03-23T16:40:02;13.60;99.90
51500;DHT22;39101;53.478;6.158;2023-03-23T16:42:28;13.50;99.90
51500;DHT22;39101;53.478;6.158;2023-03-23T16:44:53;13.40;99.90
51500;DHT22;39101;53.478;6.158;2023-03-23T16:47:19;13.30;99.90
51500;DHT22;39101;53.478;6.158;2023-03-23T16:49:52;13.10;99.90
51500;DHT22;39101;53.478;6.158;2023-03-23T16:52:18;13.00;99.90
51500;DHT22;39101;53.478;6.158;2023-03-23T16:54:44;12.90;99.90
51500;DHT22;39101;53.478;6.158;2023-03-23T16:57:10;12.90;99.90
51500;DHT22;39101;53.478;6.158;2023-03-23T16:59:36;12.80;99.90
51500;DHT22;39101;53.478;6.158;2023-03-23T17:02:02;12.60;99.90
51500;DHT22;39101;53.478;6.158;2023-03-23T17:04:29;12.60;99.90
51500;DHT22;39101;53.478;6.158;2023-03-23T17:06:56;12.60;99.90
51500;DHT22;39101;53.478;6.158;2023-03-23T17:09:24;12.50;99.90
51500;DHT22;39101;53.478;6.158;2023-03-23T17:11:51;12.50;99.90
51500;DHT22;39101;53.478;6.158;2023-03-23T17:14:17;12.30;99.90
51500;DHT22;39101;53.478;6.158;2023-03-23T17:16:42;12.30;99.90
51500;DHT22;39101;53.478;6.158;2023-03-23T17:19:08;12.40;99.90
51500;DHT22;39101;53.478;6.158;2023-03-23T17:21:34;12.40;99.90
51500;DHT22;39101;53.478;6.158;2023-03-23T17:24:00;12.40;99.90
51500;DHT22;39101;53.478;6.158;2023-03-23T17:26:26;12.40;99.90
51500;DHT22;39101;53.478;6.158;2023-03-23T17:28:52;12.30;99.90
51500;DHT22;39101;53.478;6.158;2023-03-23T17:31:17;12.30;99.90
51500;DHT22;39101;53.478;6.158;2023-03-23T17:33:43;12.20;99.90
51500;DHT22;39101;53.478;6.158;2023-03-23T17:36:09;12.00;99.90